createdAt,value
2022-10-19T00:01:20.390Z,102882.91
2022-10-19T00:03:55.731Z,102883.84
2022-10-19T00:06:34.758Z,102886.38
2022-10-19T00:09:16.485Z,102882.78
2022-10-19T00:11:50.630Z,102891.50
2022-10-19T00:14:24.602Z,102887.09
2022-10-19T00:16:58.159Z,102890.56
2022-10-19T00:19:30.154Z,102885.34
2022-10-19T00:22:02.051Z,102888.81
2022-10-19T00:24:33.972Z,102887.91
2022-10-19T00:27:06.422Z,102888.81
2022-10-19T00:29:39.194Z,102886.22
2022-10-19T00:32:11.113Z,102888.81
2022-10-19T00:34:43.142Z,102880.00
2022-10-19T00:37:15.081Z,102879.16
2022-10-19T00:39:47.204Z,102887.03
2022-10-19T00:42:19.176Z,102893.22
2022-10-19T00:44:51.035Z,102893.16
2022-10-19T00:47:24.709Z,102893.13
2022-10-19T00:49:58.154Z,102888.75
2022-10-19T00:52:30.834Z,102886.13
2022-10-19T00:55:03.527Z,102892.25
2022-10-19T00:57:36.574Z,102897.47
2022-10-19T01:00:09.675Z,102892.22
2022-10-19T01:02:41.631Z,102884.34
2022-10-19T01:05:14.644Z,102880.88
2022-10-19T01:07:46.604Z,102887.00
2022-10-19T01:10:24.951Z,102877.41
2022-10-19T01:13:16.954Z,102890.53
2022-10-19T01:16:15.059Z,102884.28
2022-10-19T01:19:32.511Z,102882.50
2022-10-19T01:22:25.722Z,102875.53
2022-10-19T01:25:21.869Z,102878.22
2022-10-19T01:28:27.694Z,102886.06
2022-10-19T01:31:07.443Z,102884.19
2022-10-19T01:34:00.056Z,102878.94
2022-10-19T01:36:52.524Z,102880.78
2022-10-19T01:39:50.116Z,102886.91
2022-10-19T01:42:56.934Z,102886.00
2022-10-19T01:45:49.028Z,102893.06
2022-10-19T01:48:31.625Z,102883.38
2022-10-19T01:51:13.874Z,102886.91
2022-10-19T01:53:51.816Z,102885.16
2022-10-19T01:56:27.679Z,102880.72
2022-10-19T01:59:04.292Z,102886.88
2022-10-19T02:01:41.300Z,102871.13
2022-10-19T02:04:17.951Z,102876.41
2022-10-19T02:06:53.470Z,102860.59
2022-10-19T02:09:25.567Z,102861.50
2022-10-19T02:12:03.774Z,102865.03
2022-10-19T02:14:48.121Z,102873.72
2022-10-19T02:17:25.749Z,102868.47
2022-10-19T02:19:59.221Z,102871.13
2022-10-19T02:22:31.908Z,102872.91
2022-10-19T02:25:05.583Z,102875.53
2022-10-19T02:27:41.962Z,102874.72
2022-10-19T02:30:17.370Z,102879.06
2022-10-19T02:32:50.346Z,102870.28
2022-10-19T02:35:23.086Z,102872.94
2022-10-19T02:38:00.327Z,102878.19
2022-10-19T02:40:36.633Z,102879.91
2022-10-19T02:43:15.197Z,102872.03
2022-10-19T02:45:56.810Z,102881.69
2022-10-19T02:48:33.279Z,102887.81
2022-10-19T02:51:05.838Z,102887.78
2022-10-19T02:53:37.790Z,102894.75
2022-10-19T02:56:09.823Z,102891.31
2022-10-19T02:58:41.744Z,102886.94
2022-10-19T03:01:14.752Z,102891.34
2022-10-19T03:03:47.136Z,102887.00
2022-10-19T03:06:19.170Z,102902.78
2022-10-19T03:08:51.401Z,102896.69
2022-10-19T03:11:23.510Z,102898.41
2022-10-19T03:13:55.420Z,102896.72
2022-10-19T03:16:27.445Z,102895.78
2022-10-19T03:18:59.441Z,102901.94
2022-10-19T03:21:31.397Z,102896.66
2022-10-19T03:24:03.347Z,102894.91
2022-10-19T03:26:35.217Z,102895.78
2022-10-19T03:29:07.283Z,102903.63
2022-10-19T03:31:39.275Z,102906.28
2022-10-19T03:34:11.342Z,102907.94
2022-10-19T03:36:43.323Z,102912.38
2022-10-19T03:39:17.107Z,102909.75
2022-10-19T03:41:49.096Z,102910.66
2022-10-19T03:44:21.128Z,102911.53
2022-10-19T03:46:55.833Z,102911.59
2022-10-19T03:49:27.815Z,102913.31
2022-10-19T03:51:59.891Z,102918.59
2022-10-19T03:54:31.917Z,102918.63
2022-10-19T03:57:03.900Z,102915.97
2022-10-19T03:59:35.865Z,102918.50
2022-10-19T04:02:07.845Z,102908.00
2022-10-19T04:04:39.841Z,102916.75
2022-10-19T04:07:11.844Z,102908.84
2022-10-19T04:09:43.991Z,102915.81
2022-10-19T04:12:15.909Z,102915.63
2022-10-19T04:14:56.703Z,102912.22
2022-10-19T04:17:29.767Z,102919.00
2022-10-19T04:20:01.694Z,102930.31
2022-10-19T04:22:33.777Z,102919.84
2022-10-19T04:25:06.817Z,102920.81
2022-10-19T04:27:38.836Z,102935.00
2022-10-19T04:30:11.402Z,102928.00
2022-10-19T04:32:43.412Z,102928.00
2022-10-19T04:35:15.528Z,102933.16
2022-10-19T04:37:47.586Z,102932.34
2022-10-19T04:40:19.486Z,102932.38
2022-10-19T04:42:51.478Z,102932.38
2022-10-19T04:45:23.392Z,102935.94
2022-10-19T04:47:56.788Z,102937.69
2022-10-19T04:50:28.738Z,102935.13
2022-10-19T04:53:00.671Z,102935.94
2022-10-19T04:55:32.611Z,102936.88
2022-10-19T04:58:04.523Z,102937.75
2022-10-19T05:00:39.110Z,102939.50
2022-10-19T05:03:11.169Z,102943.88
2022-10-19T05:05:43.384Z,102942.94
2022-10-19T05:08:15.377Z,102948.25
2022-10-19T05:10:47.834Z,102942.13
2022-10-19T05:13:19.829Z,102950.03
2022-10-19T05:16:00.228Z,102950.88
2022-10-19T05:18:33.470Z,102949.00
2022-10-19T05:21:12.487Z,102939.44
2022-10-19T05:23:44.984Z,102940.31
2022-10-19T05:26:19.670Z,102938.53
2022-10-19T05:29:01.630Z,102933.28
2022-10-19T05:31:34.950Z,102934.16
2022-10-19T05:36:40.832Z,102931.34
2022-10-19T05:39:16.132Z,102926.88
2022-10-19T05:41:48.443Z,102925.16
2022-10-19T05:44:23.784Z,102930.53
2022-10-19T05:46:55.727Z,102923.56
2022-10-19T05:49:27.890Z,102925.22
2022-10-19T05:51:59.834Z,102923.50
2022-10-19T05:54:31.868Z,102926.97
2022-10-19T05:57:04.145Z,102923.50
2022-10-19T05:59:36.056Z,102922.69
2022-10-19T06:02:14.193Z,102918.34
2022-10-19T06:04:46.159Z,102916.59
2022-10-19T06:07:18.161Z,102917.44
2022-10-19T06:09:50.213Z,102933.19
2022-10-19T06:12:25.002Z,102927.94
2022-10-19T06:14:57.178Z,102925.25
2022-10-19T06:17:29.872Z,102930.53
2022-10-19T06:20:01.838Z,102927.94
2022-10-19T06:22:33.772Z,102931.47
2022-10-19T06:25:06.315Z,102923.66
2022-10-19T06:27:38.635Z,102935.09
2022-10-19T06:30:11.647Z,102936.88
2022-10-19T06:32:43.574Z,102940.41
2022-10-19T06:35:16.292Z,102943.06
2022-10-19T06:37:48.183Z,102947.41
2022-10-19T06:40:20.194Z,102957.94
2022-10-19T06:42:52.294Z,102964.97
2022-10-19T06:45:24.342Z,102965.03
2022-10-19T06:47:56.268Z,102958.00
2022-10-19T06:50:28.276Z,102969.44
2022-10-19T06:53:00.450Z,102960.69
2022-10-19T06:55:32.364Z,102959.84
2022-10-19T06:58:04.642Z,102957.22
2022-10-19T07:00:36.615Z,102967.84
2022-10-19T07:03:11.537Z,102962.66
2022-10-19T07:05:43.552Z,102967.06
2022-10-19T07:08:15.562Z,102971.47
2022-10-19T07:10:57.787Z,102968.00
2022-10-19T07:13:31.169Z,102975.91
2022-10-19T07:16:15.860Z,102970.72
2022-10-19T07:18:53.507Z,102971.63
2022-10-19T07:21:26.065Z,102976.94
2022-10-19T07:23:58.208Z,102983.09
2022-10-19T07:26:30.651Z,102981.41
2022-10-19T07:29:03.351Z,102978.88
2022-10-19T07:31:35.676Z,102986.03
2022-10-19T07:34:10.272Z,102983.38
2022-10-19T07:36:46.157Z,102984.28
2022-10-19T07:39:18.235Z,102986.06
2022-10-19T07:41:50.200Z,102988.72
2022-10-19T07:44:22.210Z,102987.91
2022-10-19T07:46:54.168Z,102995.09
2022-10-19T07:49:26.167Z,102992.53
2022-10-19T07:51:59.130Z,102990.78
2022-10-19T07:54:31.031Z,102984.78
2022-10-19T07:57:03.030Z,102992.78
2022-10-19T07:59:34.957Z,103000.75
2022-10-19T08:02:16.378Z,102995.53
2022-10-19T08:05:00.255Z,102997.34
2022-10-19T08:07:35.183Z,102990.34
2022-10-19T08:10:07.809Z,102993.19
2022-10-19T08:12:39.781Z,102996.69
2022-10-19T08:15:11.750Z,102989.69
2022-10-19T08:17:43.656Z,102994.25
2022-10-19T08:20:15.621Z,102990.84
2022-10-19T08:22:47.650Z,103004.03
2022-10-19T08:25:20.169Z,102993.56
2022-10-19T08:27:52.684Z,102997.09
2022-10-19T08:30:24.727Z,103000.66
2022-10-19T08:32:56.648Z,103010.38
2022-10-19T08:35:30.333Z,103006.97
2022-10-19T08:38:02.982Z,103000.88
2022-10-19T08:40:35.000Z,103002.72
2022-10-19T08:43:30.408Z,102995.72
2022-10-19T08:46:24.845Z,102996.56
2022-10-19T08:48:57.096Z,102999.34
2022-10-19T08:51:36.122Z,103000.22
2022-10-19T08:54:17.012Z,103002.91
2022-10-19T08:56:59.554Z,102997.66
2022-10-19T09:00:00.377Z,103007.38
2022-10-19T09:02:56.423Z,103001.31
2022-10-19T09:05:55.145Z,103000.47
2022-10-19T09:08:27.955Z,103000.56
2022-10-19T09:10:59.991Z,103001.47
2022-10-19T09:14:04.073Z,103000.66
2022-10-19T09:16:36.584Z,102991.91
2022-10-19T09:19:30.190Z,103000.72
2022-10-19T09:22:31.646Z,102990.25
2022-10-19T09:25:14.958Z,102994.69
2022-10-19T09:27:53.667Z,102999.13
2022-10-19T09:30:25.692Z,102992.09
2022-10-19T09:33:02.364Z,102988.63
2022-10-19T09:35:43.734Z,102993.94
2022-10-19T09:38:16.962Z,102991.44
2022-10-19T09:40:48.928Z,102994.09
2022-10-19T09:43:22.157Z,102986.22
2022-10-19T09:46:31.845Z,102992.31
2022-10-19T09:49:05.821Z,102986.19
2022-10-19T09:51:55.966Z,102988.78
2022-10-19T09:54:37.551Z,102991.44
2022-10-19T09:57:22.006Z,103004.59
2022-10-19T09:59:55.126Z,102989.59
2022-10-19T10:02:34.723Z,102991.28
2022-10-19T10:05:14.511Z,102991.19
2022-10-19T10:07:46.539Z,102988.47
2022-10-19T10:10:18.337Z,102983.41
2022-10-19T10:12:51.954Z,102980.09
2022-10-19T10:15:36.688Z,102977.66
2022-10-19T10:18:14.953Z,102965.63
2022-10-19T10:21:11.209Z,102968.59
2022-10-19T10:23:43.143Z,102972.78
2022-10-19T10:26:20.080Z,102972.97
2022-10-19T10:28:52.095Z,102967.94
2022-10-19T10:31:29.806Z,102968.97
2022-10-19T10:34:11.024Z,102968.50
2022-10-19T10:36:55.204Z,102971.31
2022-10-19T10:39:29.250Z,102971.34
2022-10-19T10:42:10.606Z,102965.22
2022-10-19T10:44:49.647Z,102969.66
2022-10-19T10:47:21.649Z,102965.22
2022-10-19T10:49:58.707Z,102972.22
2022-10-19T10:52:31.659Z,102971.28
2022-10-19T10:55:09.662Z,102972.13
2022-10-19T10:57:48.418Z,102969.50
2022-10-19T11:00:24.121Z,102975.66
2022-10-19T11:03:13.549Z,102974.81
2022-10-19T11:05:54.170Z,102970.34
2022-10-19T11:08:47.165Z,102970.28
2022-10-19T11:11:29.569Z,102957.06
2022-10-19T11:14:41.123Z,102940.38
2022-10-19T11:17:23.814Z,102946.53
2022-10-19T11:19:55.817Z,102952.66
2022-10-19T11:22:52.730Z,102938.47
2022-10-19T11:25:33.080Z,102944.56
2022-10-19T11:28:04.964Z,102936.50
2022-10-19T11:31:08.771Z,102935.50
2022-10-19T11:34:10.623Z,102937.22
2022-10-19T11:37:12.546Z,102930.06
2022-10-19T11:39:57.197Z,102923.84
2022-10-19T11:43:03.369Z,102915.06
2022-10-19T11:45:58.424Z,102895.75
2022-10-19T11:48:57.857Z,102888.72
2022-10-19T11:51:47.184Z,102888.66
2022-10-19T11:54:54.617Z,102887.84
2022-10-19T11:57:29.003Z,102887.91
2022-10-19T12:00:27.222Z,102877.34
2022-10-19T12:03:47.713Z,102881.72
2022-10-19T12:06:54.833Z,102886.13
2022-10-19T12:09:59.564Z,102894.09
2022-10-19T12:12:37.939Z,102885.44
2022-10-19T12:15:21.163Z,102889.00
2022-10-19T12:17:57.825Z,102875.84
2022-10-19T12:20:39.608Z,102870.59
2022-10-19T12:23:34.842Z,102861.81
2022-10-19T12:26:11.673Z,102858.28
2022-10-19T12:28:51.355Z,102856.53
2022-10-19T12:31:25.506Z,102847.75
2022-10-19T12:34:39.657Z,102852.19
2022-10-19T12:37:44.219Z,102857.53
2022-10-19T12:40:38.797Z,102844.38
2022-10-19T12:43:41.497Z,102842.69
2022-10-19T12:46:38.533Z,102846.25
2022-10-19T12:49:29.208Z,102836.59
2022-10-19T12:52:02.377Z,102836.59
2022-10-19T12:54:38.453Z,102835.72
2022-10-19T12:57:48.408Z,102839.19
2022-10-19T13:00:25.839Z,102838.28
2022-10-19T13:03:05.144Z,102839.09
2022-10-19T13:05:37.426Z,102839.06
2022-10-19T13:08:12.323Z,102835.50
2022-10-19T13:11:08.581Z,102827.50
2022-10-19T13:14:26.293Z,102835.38
2022-10-19T13:17:00.683Z,102827.44
2022-10-19T13:19:32.696Z,102821.28
2022-10-19T13:22:27.492Z,102823.88
2022-10-19T13:25:29.856Z,102816.84
2022-10-19T13:28:07.950Z,102812.47
2022-10-19T13:30:39.797Z,102807.25
2022-10-19T13:33:29.895Z,102808.22
2022-10-19T13:36:02.569Z,102805.66
2022-10-19T13:38:44.161Z,102798.69
2022-10-19T13:41:25.307Z,102797.84
2022-10-19T13:44:22.072Z,102795.22
2022-10-19T13:47:39.220Z,102790.81
2022-10-19T13:50:22.867Z,102795.19
2022-10-19T13:53:19.080Z,102787.28
2022-10-19T13:56:24.316Z,102781.97
2022-10-19T13:59:59.346Z,102780.19
2022-10-19T14:02:56.449Z,102781.06
2022-10-19T14:06:12.581Z,102768.75
2022-10-19T14:09:23.301Z,102767.88
2022-10-19T14:12:07.076Z,102766.13
2022-10-19T14:17:42.591Z,102761.75
2022-10-19T14:20:34.360Z,102753.84
2022-10-19T14:23:29.704Z,102757.34
2022-10-19T14:26:06.679Z,102753.81
2022-10-19T14:28:40.359Z,102753.84
2022-10-19T14:31:26.417Z,102747.69
2022-10-19T14:34:02.750Z,102749.41
2022-10-19T14:36:40.026Z,102744.97
2022-10-19T14:39:38.531Z,102741.38
2022-10-19T14:42:10.996Z,102750.16
2022-10-19T14:44:44.277Z,102740.50
2022-10-19T14:47:23.384Z,102736.97
2022-10-19T14:49:55.358Z,102732.56
2022-10-19T14:52:37.820Z,102729.03
2022-10-19T14:55:18.032Z,102723.69
2022-10-19T14:57:53.006Z,102732.44
2022-10-19T15:03:25.780Z,102735.03
2022-10-19T15:06:05.693Z,102721.78
2022-10-19T15:08:44.001Z,102721.72
2022-10-19T15:11:31.001Z,102716.41
2022-10-19T15:14:27.214Z,102719.00
2022-10-19T15:17:02.313Z,102721.63
2022-10-19T15:19:41.285Z,102724.16
2022-10-19T15:22:22.150Z,102718.03
2022-10-19T15:25:16.602Z,102715.34
2022-10-19T15:27:50.902Z,102717.09
2022-10-19T15:30:29.911Z,102718.81
2022-10-19T15:33:01.758Z,102704.78
2022-10-19T15:35:36.268Z,102705.63
2022-10-19T15:38:14.840Z,102705.59
2022-10-19T15:40:48.312Z,102705.53
2022-10-19T15:43:35.024Z,102706.38
2022-10-19T15:46:35.946Z,102694.94
2022-10-19T15:49:16.962Z,102699.28
2022-10-19T15:51:52.011Z,102702.75
2022-10-19T15:54:26.665Z,102700.97
2022-10-19T15:56:59.360Z,102709.72
2022-10-19T15:59:31.340Z,102707.94
2022-10-19T16:02:13.053Z,102709.66
2022-10-19T16:04:45.020Z,102704.34
2022-10-19T16:07:27.541Z,102702.56
2022-10-19T16:09:59.962Z,102701.63
2022-10-19T16:12:32.053Z,102698.03
2022-10-19T16:15:04.329Z,102704.09
2022-10-19T16:17:36.627Z,102697.00
2022-10-19T16:20:11.196Z,102705.72
2022-10-19T16:22:44.468Z,102704.81
2022-10-19T16:25:17.479Z,102697.78
2022-10-19T16:27:49.445Z,102699.50
2022-10-19T16:30:21.562Z,102698.53
2022-10-19T16:32:53.446Z,102702.84
2022-10-19T16:35:25.512Z,102700.16
2022-10-19T16:37:59.087Z,102702.72
2022-10-19T16:40:31.339Z,102700.94
2022-10-19T16:43:03.481Z,102695.59
2022-10-19T16:45:35.862Z,102690.28
2022-10-19T16:48:07.857Z,102698.09
2022-10-19T16:50:39.956Z,102692.75
2022-10-19T16:53:12.342Z,102697.09
2022-10-19T16:55:44.311Z,102690.91
2022-10-19T16:58:16.198Z,102688.22
2022-10-19T17:00:48.154Z,102692.53
2022-10-19T17:03:20.065Z,102687.22
2022-10-19T17:05:51.995Z,102695.03
2022-10-19T17:08:36.753Z,102693.25
2022-10-19T17:11:14.442Z,102693.19
2022-10-19T17:13:48.720Z,102701.06
2022-10-19T17:16:22.366Z,102699.25
2022-10-19T17:18:59.644Z,102699.19
2022-10-19T17:21:34.640Z,102700.94
2022-10-19T17:24:15.582Z,102711.41
2022-10-19T17:26:51.295Z,102699.06
2022-10-19T17:29:23.945Z,102701.72
2022-10-19T17:31:55.945Z,102699.09
2022-10-19T17:34:27.982Z,102696.44
2022-10-19T17:36:59.971Z,102701.66
2022-10-19T17:39:32.113Z,102705.97
2022-10-19T17:42:05.031Z,102705.09
2022-10-19T17:44:36.994Z,102698.94
2022-10-19T17:47:09.014Z,102705.81
2022-10-19T17:49:41.047Z,102707.47
2022-10-19T17:52:13.127Z,102706.53
2022-10-19T17:55:00.580Z,102716.94
2022-10-19T17:57:37.423Z,102720.38
2022-10-19T18:00:10.234Z,102719.47
2022-10-19T18:02:45.200Z,102717.75
2022-10-19T18:05:17.405Z,102707.25
2022-10-19T18:07:51.447Z,102699.31
2022-10-19T18:10:23.352Z,102707.16
2022-10-19T18:12:55.313Z,102706.25
2022-10-19T18:15:27.285Z,102704.50
2022-10-19T18:17:59.496Z,102714.91
2022-10-19T18:20:31.481Z,102704.38
2022-10-19T18:23:03.547Z,102699.09
2022-10-19T18:25:53.431Z,102697.31
2022-10-19T18:28:26.066Z,102713.03
2022-10-19T18:31:13.422Z,102709.47
2022-10-19T18:33:50.272Z,102708.47
2022-10-19T18:36:22.272Z,102704.94
2022-10-19T18:38:58.027Z,102705.81
2022-10-19T18:41:30.327Z,102701.38
2022-10-19T18:44:05.393Z,102700.44
2022-10-19T18:46:37.793Z,102712.66
2022-10-19T18:49:11.672Z,102702.16
2022-10-19T18:51:43.675Z,102703.03
2022-10-19T18:54:15.705Z,102694.25
2022-10-19T18:56:47.634Z,102690.72
2022-10-19T18:59:20.290Z,102676.75
2022-10-19T19:01:52.448Z,102681.09
2022-10-19T19:04:24.420Z,102669.69
2022-10-19T19:06:56.544Z,102667.94
2022-10-19T19:09:28.501Z,102662.66
2022-10-19T19:12:01.255Z,102663.44
2022-10-19T19:14:33.393Z,102655.53
2022-10-19T19:17:05.341Z,102654.63
2022-10-19T19:19:37.338Z,102642.31
2022-10-19T19:22:09.290Z,102642.25
2022-10-19T19:24:42.157Z,102643.06
2022-10-19T19:27:14.223Z,102638.59
2022-10-19T19:29:46.159Z,102635.03
2022-10-19T19:32:18.117Z,102627.06
2022-10-19T19:34:54.581Z,102621.84
2022-10-19T19:37:26.927Z,102624.38
2022-10-19T19:39:58.876Z,102628.59
2022-10-19T19:42:30.822Z,102623.34
2022-10-19T19:45:02.741Z,102627.69
2022-10-19T19:47:34.890Z,102622.31
2022-10-19T19:50:08.230Z,102618.78
2022-10-19T19:52:40.644Z,102618.63
2022-10-19T19:55:12.711Z,102612.56
2022-10-19T19:57:47.924Z,102617.69
2022-10-19T20:00:24.073Z,102615.84
2022-10-19T20:02:58.795Z,102607.88
2022-10-19T20:05:32.366Z,102606.94
2022-10-19T20:08:04.508Z,102614.75
2022-10-19T20:10:41.467Z,102619.97
2022-10-19T20:13:13.423Z,102615.56
2022-10-19T20:15:45.384Z,102619.00
2022-10-19T20:18:17.407Z,102619.06
2022-10-19T20:20:50.008Z,102621.66
2022-10-19T20:23:21.972Z,102616.44
2022-10-19T20:25:53.921Z,102612.97
2022-10-19T20:28:27.557Z,102620.84
2022-10-19T20:31:08.243Z,102622.59
2022-10-19T20:33:42.395Z,102614.69
2022-10-19T20:36:21.725Z,102613.75
2022-10-19T20:38:57.692Z,102610.22
2022-10-19T20:41:29.659Z,102616.28
2022-10-19T20:44:02.108Z,102616.19
2022-10-19T20:46:34.463Z,102628.38
2022-10-19T20:49:07.647Z,102625.72
2022-10-19T20:51:39.595Z,102607.34
2022-10-19T20:54:12.486Z,102606.44
2022-10-19T20:56:44.365Z,102605.56
2022-10-19T20:59:20.437Z,102602.91
2022-10-19T21:01:54.972Z,102601.97
2022-10-19T21:04:28.029Z,102597.53
2022-10-19T21:07:01.088Z,102585.25
2022-10-19T21:09:33.240Z,102599.16
2022-10-19T21:12:05.168Z,102596.44
2022-10-19T21:14:37.349Z,102593.72
2022-10-19T21:17:09.245Z,102580.56
2022-10-19T21:19:41.215Z,102581.38
2022-10-19T21:22:13.995Z,102580.47
2022-10-19T21:24:45.907Z,102575.16
2022-10-19T21:27:17.870Z,102560.19
2022-10-19T21:29:49.808Z,102559.25
2022-10-19T21:32:21.906Z,102557.50
2022-10-19T21:34:53.858Z,102562.63
2022-10-19T21:37:25.787Z,102555.72
2022-10-19T21:39:57.696Z,102552.06
2022-10-19T21:42:39.329Z,102547.63
2022-10-19T21:45:29.179Z,102548.56
2022-10-19T21:48:02.023Z,102559.66
2022-10-19T21:50:34.068Z,102551.91
2022-10-19T21:53:06.044Z,102558.81
2022-10-19T21:55:38.147Z,102551.69
2022-10-19T21:58:10.037Z,102547.34
2022-10-19T22:00:42.634Z,102535.13
2022-10-19T22:06:06.763Z,102526.47
2022-10-19T22:08:40.405Z,102526.38
2022-10-19T22:11:14.319Z,102524.53
2022-10-19T22:13:46.383Z,102540.19
2022-10-19T22:16:20.673Z,102530.44
2022-10-19T22:18:53.505Z,102520.75
2022-10-19T22:21:29.804Z,102519.81
2022-10-19T22:24:08.695Z,102513.56
2022-10-19T22:26:47.340Z,102504.88
2022-10-19T22:29:19.356Z,102502.03
2022-10-19T22:31:51.274Z,102490.66
2022-10-19T22:34:23.167Z,102489.78
2022-10-19T22:36:55.127Z,102494.03
2022-10-19T22:39:28.013Z,102490.53
2022-10-19T22:42:00.052Z,102487.88
2022-10-19T22:44:32.438Z,102492.22
2022-10-19T22:47:04.582Z,102482.59
2022-10-19T22:49:36.565Z,102489.50
2022-10-19T22:52:08.562Z,102475.53
2022-10-19T22:54:40.492Z,102472.06
2022-10-19T22:57:12.450Z,102467.69
2022-10-19T22:59:44.367Z,102478.16
2022-10-19T23:02:16.274Z,102480.78
2022-10-19T23:04:48.180Z,102481.84
2022-10-19T23:07:20.130Z,102480.03
2022-10-19T23:09:52.452Z,102472.06
2022-10-19T23:12:24.460Z,102470.31
2022-10-19T23:14:56.370Z,102475.56
2022-10-19T23:17:28.313Z,102476.47
2022-10-19T23:20:00.296Z,102473.72
2022-10-19T23:22:32.285Z,102477.19
2022-10-19T23:25:04.734Z,102468.50
2022-10-19T23:27:37.196Z,102458.66
2022-10-19T23:30:09.829Z,102462.19
2022-10-19T23:32:41.846Z,102452.50
2022-10-19T23:35:13.866Z,102450.78
2022-10-19T23:37:45.854Z,102455.25
2022-10-19T23:40:17.813Z,102451.69
2022-10-19T23:42:49.730Z,102451.59
2022-10-19T23:45:21.641Z,102458.72
2022-10-19T23:47:53.590Z,102443.75
2022-10-19T23:50:25.643Z,102440.22
2022-10-19T23:52:57.548Z,102431.28
2022-10-19T23:55:29.538Z,102430.41
2022-10-19T23:58:01.450Z,102425.97
